createdAt,value
2022-08-19T00:11:29.974Z,22.50
2022-08-19T00:14:18.214Z,21.70
2022-08-19T00:17:04.945Z,21.60
2022-08-19T00:22:36.700Z,21.60
2022-08-19T00:28:16.836Z,22.40
2022-08-19T00:31:06.293Z,21.60
2022-08-19T00:39:25.021Z,21.50
2022-08-19T00:42:10.564Z,21.50
2022-08-19T00:44:56.257Z,21.70
2022-08-19T00:47:42.175Z,21.50
2022-08-19T00:50:29.062Z,21.40
2022-08-19T00:53:18.572Z,21.50
2022-08-19T00:56:07.226Z,21.60
2022-08-19T00:58:54.222Z,21.50
2022-08-19T01:01:42.950Z,21.50
2022-08-19T01:04:28.780Z,21.60
2022-08-19T01:07:15.017Z,21.50
2022-08-19T01:10:04.385Z,21.60
2022-08-19T01:12:51.205Z,21.50
2022-08-19T01:15:44.485Z,21.40
2022-08-19T01:18:31.125Z,21.40
2022-08-19T01:21:29.200Z,21.40
2022-08-19T01:24:16.056Z,21.50
2022-08-19T01:27:05.481Z,21.50
2022-08-19T01:29:56.980Z,21.60
2022-08-19T01:35:31.500Z,21.60
2022-08-19T01:38:25.570Z,21.50
2022-08-19T01:41:14.543Z,21.50
2022-08-19T01:44:09.761Z,21.40
2022-08-19T01:47:04.973Z,21.50
2022-08-19T01:49:50.632Z,21.40
2022-08-19T01:52:38.810Z,21.40
2022-08-19T01:55:25.224Z,21.40
2022-08-19T01:58:21.486Z,21.40
2022-08-19T02:03:56.883Z,21.40
2022-08-19T02:06:44.003Z,21.40
2022-08-19T02:15:04.437Z,21.50
2022-08-19T02:20:38.538Z,21.50
2022-08-19T02:23:24.557Z,21.40
2022-08-19T02:26:10.502Z,21.40
2022-08-19T02:28:57.019Z,21.60
2022-08-19T02:37:35.006Z,21.30
2022-08-19T02:43:09.761Z,21.30
2022-08-19T02:51:34.755Z,21.20
2022-08-19T02:54:20.269Z,21.10
2022-08-19T02:57:07.154Z,20.80
2022-08-19T02:59:53.729Z,20.70
2022-08-19T03:05:48.117Z,20.50
2022-08-19T03:11:22.145Z,20.10
2022-08-19T03:14:09.898Z,20.00
2022-08-19T03:16:55.806Z,20.20
2022-08-19T03:30:57.742Z,20.20
2022-08-19T03:47:58.416Z,20.20
2022-08-19T03:53:32.134Z,20.30
2022-08-19T03:59:04.955Z,20.20
2022-08-19T04:10:10.626Z,20.40
2022-08-19T04:12:56.388Z,20.50
2022-08-19T04:15:44.611Z,20.30
2022-08-19T04:21:26.613Z,20.40
2022-08-19T04:27:03.780Z,20.40
2022-08-19T04:35:24.834Z,20.70
2022-08-19T04:38:13.166Z,20.40
2022-08-19T04:41:17.359Z,19.60
2022-08-19T04:46:52.354Z,20.20
2022-08-19T04:55:13.635Z,20.20
2022-08-19T05:00:45.936Z,20.20
2022-08-19T05:03:34.498Z,20.20
2022-08-19T05:06:22.401Z,20.00
2022-08-19T05:09:07.995Z,20.00
2022-08-19T05:14:40.700Z,19.40
2022-08-19T05:17:30.337Z,20.00
2022-08-19T05:37:15.360Z,19.90
2022-08-19T05:45:43.248Z,19.90
2022-08-19T05:54:05.286Z,19.90
2022-08-19T05:56:52.833Z,19.90
2022-08-19T06:13:35.189Z,19.90
2022-08-19T06:16:23.426Z,19.80
2022-08-19T06:19:13.096Z,19.90
2022-08-19T06:22:00.648Z,19.80
2022-08-19T06:41:27.024Z,19.80
2022-08-19T06:52:38.385Z,19.90
2022-08-19T07:15:05.793Z,19.80
2022-08-19T07:17:53.460Z,20.10
2022-08-19T07:20:41.947Z,19.80
2022-08-19T07:26:21.484Z,20.10
2022-08-19T07:32:02.532Z,20.00
2022-08-19T07:46:02.851Z,20.60
2022-08-19T07:48:52.317Z,20.80
2022-08-19T07:54:25.904Z,21.00
2022-08-19T07:57:12.314Z,21.30
2022-08-19T07:59:57.940Z,21.40
2022-08-19T08:02:44.928Z,21.20
2022-08-19T08:05:50.580Z,21.80
2022-08-19T08:08:54.660Z,22.10
2022-08-19T08:11:42.783Z,21.80
2022-08-19T08:14:36.078Z,22.10
2022-08-19T08:17:48.448Z,22.20
2022-08-19T08:23:23.308Z,22.10
2022-08-19T08:26:09.296Z,22.40
2022-08-19T08:31:44.996Z,22.20
2022-08-19T08:34:30.898Z,22.40
2022-08-19T08:37:16.649Z,22.40
2022-08-19T08:40:49.574Z,22.80
2022-08-19T08:43:39.034Z,22.90
2022-08-19T08:47:02.867Z,22.20
2022-08-19T08:50:02.236Z,22.90
2022-08-19T08:52:52.157Z,22.60
2022-08-19T08:55:38.344Z,22.60
2022-08-19T08:58:42.961Z,22.50
2022-08-19T09:01:30.151Z,22.50
2022-08-19T09:04:17.229Z,22.60
2022-08-19T09:07:45.714Z,21.90
2022-08-19T09:10:45.113Z,22.40
2022-08-19T09:13:56.225Z,25.70
2022-08-19T09:16:41.747Z,22.50
2022-08-19T09:19:27.540Z,22.50
2022-08-19T09:22:14.989Z,22.70
2022-08-19T09:25:15.920Z,22.40
2022-08-19T09:28:05.696Z,22.60
2022-08-19T09:31:01.422Z,22.70
2022-08-19T09:36:39.772Z,22.60
2022-08-19T09:39:25.472Z,22.60
2022-08-19T09:42:30.014Z,22.60
2022-08-19T09:45:22.914Z,22.50
2022-08-19T09:48:09.407Z,22.70
2022-08-19T09:50:55.663Z,22.60
2022-08-19T09:53:41.328Z,22.60
2022-08-19T09:56:27.196Z,22.70
2022-08-19T09:59:13.164Z,22.60
2022-08-19T10:05:15.461Z,22.50
2022-08-19T10:08:13.154Z,22.50
2022-08-19T10:11:00.136Z,22.50
2022-08-19T10:14:06.784Z,22.70
2022-08-19T10:16:52.550Z,22.70
2022-08-19T10:19:39.219Z,22.90
2022-08-19T10:22:25.968Z,23.00
2022-08-19T10:25:17.577Z,23.10
2022-08-19T10:28:03.184Z,23.50
2022-08-19T10:33:53.199Z,22.80
2022-08-19T10:36:39.805Z,23.50
2022-08-19T10:39:47.777Z,23.90
2022-08-19T10:45:26.559Z,23.70
2022-08-19T10:48:15.646Z,23.50
2022-08-19T10:51:25.389Z,23.90
2022-08-19T10:54:12.619Z,23.80
2022-08-19T11:02:33.736Z,24.10
2022-08-19T11:05:20.480Z,24.50
2022-08-19T11:11:10.064Z,24.80
2022-08-19T11:13:56.066Z,24.80
2022-08-19T11:16:43.367Z,23.70
2022-08-19T11:19:28.972Z,24.40
2022-08-19T11:25:05.992Z,25.20
2022-08-19T11:30:42.956Z,24.90
2022-08-19T11:33:28.720Z,25.50
2022-08-19T11:36:15.137Z,25.30
2022-08-19T11:39:01.945Z,25.40
2022-08-19T11:41:47.780Z,25.40
2022-08-19T11:44:34.255Z,25.20
2022-08-19T11:52:57.788Z,25.50
2022-08-19T11:55:45.826Z,25.60
2022-08-19T11:58:31.582Z,24.70
2022-08-19T12:01:19.432Z,25.50
2022-08-19T12:04:07.954Z,25.80
2022-08-19T12:09:42.191Z,25.50
2022-08-19T12:12:28.983Z,25.00
2022-08-19T12:15:15.337Z,25.00
2022-08-19T12:20:51.946Z,25.60
2022-08-19T12:23:38.412Z,25.70
2022-08-19T12:26:26.229Z,25.70
2022-08-19T12:29:11.736Z,25.80
2022-08-19T12:32:04.099Z,25.70
2022-08-19T12:34:50.029Z,26.30
2022-08-19T12:40:22.049Z,25.60
2022-08-19T12:43:09.325Z,25.70
2022-08-19T12:48:43.327Z,26.30
2022-08-19T12:54:21.130Z,26.40
2022-08-19T12:57:08.830Z,26.30
2022-08-19T12:59:54.859Z,26.00
2022-08-19T13:02:42.869Z,26.10
2022-08-19T13:05:31.382Z,26.10
2022-08-19T13:08:18.017Z,25.90
2022-08-19T13:11:16.473Z,25.30
2022-08-19T13:14:04.770Z,25.30
2022-08-19T13:16:50.612Z,25.90
2022-08-19T13:19:40.975Z,25.70
2022-08-19T13:25:17.349Z,25.50
2022-08-19T13:28:03.739Z,26.20
2022-08-19T13:31:07.890Z,26.00
2022-08-19T13:33:53.505Z,26.20
2022-08-19T13:36:39.699Z,26.30
2022-08-19T13:39:25.350Z,25.80
2022-08-19T13:44:59.758Z,27.00
2022-08-19T13:47:53.673Z,26.50
2022-08-19T13:50:44.839Z,26.70
2022-08-19T13:53:31.210Z,26.70
2022-08-19T13:56:24.147Z,26.60
2022-08-19T13:59:12.765Z,27.10
2022-08-19T14:02:01.866Z,26.60
2022-08-19T14:04:47.333Z,26.60
2022-08-19T14:07:33.175Z,26.50
2022-08-19T14:10:20.237Z,26.30
2022-08-19T14:13:06.123Z,26.30
2022-08-19T14:15:52.960Z,25.90
2022-08-19T14:18:40.630Z,25.60
2022-08-19T14:21:26.463Z,26.00
2022-08-19T14:24:12.150Z,26.20
2022-08-19T14:26:59.924Z,26.30
2022-08-19T14:29:46.456Z,26.90
2022-08-19T14:32:32.080Z,26.20
2022-08-19T14:35:17.940Z,26.30
2022-08-19T14:38:06.614Z,26.00
2022-08-19T14:40:53.026Z,26.40
2022-08-19T14:43:40.713Z,26.80
2022-08-19T14:46:29.572Z,26.10
2022-08-19T14:49:15.286Z,26.60
2022-08-19T15:00:18.961Z,26.20
2022-08-19T15:05:50.680Z,25.90
2022-08-19T15:08:39.924Z,26.70
2022-08-19T15:11:28.772Z,27.00
2022-08-19T15:14:16.180Z,26.00
2022-08-19T15:17:03.884Z,26.80
2022-08-19T15:19:49.545Z,26.40
2022-08-19T15:22:36.424Z,27.00
2022-08-19T15:25:22.595Z,26.60
2022-08-19T15:28:08.580Z,27.00
2022-08-19T15:30:54.312Z,27.00
2022-08-19T15:33:44.382Z,26.90
2022-08-19T15:36:30.529Z,26.30
2022-08-19T15:42:03.032Z,26.80
2022-08-19T15:47:36.851Z,26.70
2022-08-19T15:50:22.636Z,26.70
2022-08-19T15:53:10.688Z,26.70
2022-08-19T16:05:15.024Z,26.20
2022-08-19T16:08:00.778Z,26.70
2022-08-19T16:16:20.354Z,26.90
2022-08-19T16:19:10.674Z,26.40
2022-08-19T16:24:44.506Z,26.50
2022-08-19T16:27:30.640Z,26.40
2022-08-19T16:30:16.342Z,25.90
2022-08-19T16:38:46.659Z,26.40
2022-08-19T16:41:32.548Z,26.00
2022-08-19T16:47:05.257Z,26.00
2022-08-19T16:49:52.907Z,26.30
2022-08-19T16:55:28.352Z,25.30
2022-08-19T17:01:04.210Z,26.40
2022-08-19T17:03:52.046Z,26.10
2022-08-19T17:09:26.079Z,25.50
2022-08-19T17:14:59.022Z,25.40
2022-08-19T17:17:44.890Z,26.00
2022-08-19T17:20:31.875Z,25.90
2022-08-19T17:23:18.937Z,25.60
2022-08-19T17:26:05.450Z,25.90
2022-08-19T17:28:53.392Z,25.80
2022-08-19T17:31:39.110Z,24.80
2022-08-19T17:37:10.437Z,25.90
2022-08-19T17:39:56.455Z,25.20
2022-08-19T17:42:42.373Z,25.40
2022-08-19T17:45:28.402Z,25.70
2022-08-19T17:48:14.455Z,25.50
2022-08-19T17:51:00.525Z,25.50
2022-08-19T17:53:46.383Z,25.30
2022-08-19T17:56:32.049Z,25.20
2022-08-19T17:59:18.140Z,25.00
2022-08-19T18:02:05.654Z,25.10
2022-08-19T18:10:35.280Z,24.90
2022-08-19T18:13:21.445Z,24.70
2022-08-19T18:16:10.901Z,24.80
2022-08-19T18:18:56.400Z,24.90
2022-08-19T18:24:28.082Z,24.80
2022-08-19T18:27:14.877Z,24.40
2022-08-19T18:30:01.332Z,24.50
2022-08-19T18:32:49.625Z,24.60
2022-08-19T18:35:38.586Z,24.60
2022-08-19T18:38:43.470Z,24.80
2022-08-19T18:41:47.277Z,24.30
2022-08-19T18:44:57.903Z,24.30
2022-08-19T18:48:03.976Z,24.20
2022-08-19T18:53:39.517Z,24.10
2022-08-19T18:56:29.172Z,23.90
2022-08-19T18:59:14.998Z,24.10
2022-08-19T19:02:02.302Z,23.60
2022-08-19T19:04:47.949Z,23.80
2022-08-19T19:07:35.025Z,23.90
2022-08-19T19:10:20.921Z,23.80
2022-08-19T19:13:06.309Z,23.80
2022-08-19T19:15:52.380Z,23.70
2022-08-19T19:18:38.672Z,23.70
2022-08-19T19:21:25.682Z,23.60
2022-08-19T19:24:13.917Z,23.60
2022-08-19T19:27:06.489Z,23.60
2022-08-19T19:32:39.448Z,23.50
2022-08-19T19:35:25.183Z,22.90
2022-08-19T19:38:11.327Z,23.40
2022-08-19T19:40:57.031Z,23.40
2022-08-19T19:46:32.150Z,23.40
2022-08-19T19:49:17.946Z,22.90
2022-08-19T19:52:04.452Z,23.20
2022-08-19T19:54:50.097Z,23.20
2022-08-19T19:57:35.944Z,23.20
2022-08-19T20:00:22.417Z,23.10
2022-08-19T20:03:08.221Z,23.20
2022-08-19T20:05:54.811Z,22.60
2022-08-19T20:14:35.745Z,23.10
2022-08-19T20:22:56.027Z,22.80
2022-08-19T20:25:42.026Z,22.90
2022-08-19T20:28:28.303Z,22.80
2022-08-19T20:31:14.297Z,22.70
2022-08-19T20:34:00.201Z,22.40
2022-08-19T20:36:46.680Z,22.60
2022-08-19T20:39:32.539Z,22.50
2022-08-19T20:42:18.501Z,21.70
2022-08-19T20:45:08.681Z,22.50
2022-08-19T20:48:10.381Z,22.60
2022-08-19T20:50:57.338Z,22.50
2022-08-19T20:53:43.224Z,22.60
2022-08-19T20:56:28.756Z,22.50
2022-08-19T20:59:19.924Z,22.40
2022-08-19T21:02:05.708Z,22.50
2022-08-19T21:04:52.577Z,22.40
2022-08-19T21:07:44.573Z,22.20
2022-08-19T21:10:30.717Z,22.40
2022-08-19T21:13:16.938Z,22.30
2022-08-19T21:16:02.503Z,22.20
2022-08-19T21:21:37.331Z,22.30
2022-08-19T21:24:26.329Z,22.20
2022-08-19T21:27:17.225Z,22.20
2022-08-19T21:30:05.174Z,22.20
2022-08-19T21:32:52.647Z,22.10
2022-08-19T21:35:39.133Z,21.90
2022-08-19T21:41:10.805Z,21.90
2022-08-19T21:46:42.617Z,22.00
2022-08-19T21:55:00.911Z,21.80
2022-08-19T22:00:34.697Z,22.00
2022-08-19T22:03:22.043Z,21.80
2022-08-19T22:06:09.328Z,21.90
2022-08-19T22:08:55.554Z,21.90
2022-08-19T22:11:41.398Z,21.90
2022-08-19T22:14:27.504Z,21.70
2022-08-19T22:20:00.276Z,22.30
2022-08-19T22:22:49.612Z,21.80
2022-08-19T22:25:40.419Z,21.70
2022-08-19T22:31:14.092Z,21.80
2022-08-19T22:34:01.221Z,21.60
2022-08-19T22:36:46.645Z,21.60
2022-08-19T22:39:32.372Z,21.60
2022-08-19T22:42:20.159Z,21.70
2022-08-19T22:45:08.393Z,21.60
2022-08-19T22:50:43.473Z,21.60
2022-08-19T22:56:18.526Z,21.70
2022-08-19T22:59:04.370Z,21.70
2022-08-19T23:01:50.038Z,21.60
2022-08-19T23:04:36.707Z,21.50
2022-08-19T23:07:23.549Z,21.40
2022-08-19T23:10:11.418Z,21.60
2022-08-19T23:12:59.147Z,21.50
2022-08-19T23:15:47.178Z,21.80
2022-08-19T23:18:33.690Z,21.40
2022-08-19T23:24:06.062Z,22.10
2022-08-19T23:27:10.802Z,20.60
2022-08-19T23:30:15.352Z,21.40
2022-08-19T23:33:12.265Z,21.30
2022-08-19T23:36:02.029Z,21.20
2022-08-19T23:38:49.391Z,21.20
2022-08-19T23:49:53.819Z,21.10
2022-08-19T23:52:49.209Z,21.30
2022-08-19T23:55:38.903Z,21.10
2022-08-19T23:58:30.110Z,21.20
